Terminal Aerodrome Forecast
Issued by NWS Sioux Falls, SD

Home | Current Version | Previous Version | Graphics & Text | Print | Product List | Glossary Off
Versions: 1 2 3 4 5 6 7 8 9 10 11 12 13 14 15 16

325
FTUS43 KFSD 260522
TAFHON
TAF
KHON 260522Z 2606/2706 18010KT P6SM SCT250
     FM261130 35015G25KT P6SM SCT080 BKN150
     FM261400 34018G30KT P6SM FEW080 BKN150
     FM270100 32011KT P6SM FEW080
     FM270300 27007KT P6SM SKC=

USA.gov is the U.S. government's official web portal to all federal, state and local government web resources and services.